Time,TemperatureF,DewpointF,PressureIn,WindDirection,WindDirectionDegrees,WindSpeedMPH,WindSpeedGustMPH,Humidity,HourlyPrecipIn,Conditions,Clouds,dailyrainin,SolarRadiationWatts/m^2,SoftwareType,DateUTC
2013-05-10 00:00:00,60.2,58.5,30.06,West,264,0.0,10.0,94,0.00,,,0.00,0,Wunderground v.1.15,2013-05-10 04:00:00,
2013-05-10 00:30:00,59.7,58.0,30.06,West,264,0.0,10.0,94,0.00,,,0.00,0,Wunderground v.1.15,2013-05-10 04:30:00,
2013-05-10 01:00:00,59.0,57.3,30.05,West,264,0.0,10.0,94,0.00,,,0.00,0,Wunderground v.1.15,2013-05-10 05:00:00,
2013-05-10 01:30:00,58.4,57.0,30.06,West,264,0.0,10.0,95,0.00,,,0.00,0,Wunderground v.1.15,2013-05-10 05:30:00,
2013-05-10 02:00:00,57.6,56.2,30.06,West,264,0.0,10.0,95,0.00,,,0.00,0,Wunderground v.1.15,2013-05-10 06:00:00,
2013-05-10 02:30:00,56.8,55.4,30.06,West,264,0.0,10.0,95,0.00,,,0.00,0,Wunderground v.1.15,2013-05-10 06:30:00,
2013-05-10 03:00:00,56.5,55.1,30.05,West,264,0.0,10.0,95,0.00,,,0.00,0,Wunderground v.1.15,2013-05-10 07:00:00,
2013-05-10 03:30:00,56.7,55.3,30.05,West,264,0.0,10.0,95,0.00,,,0.00,0,Wunderground v.1.15,2013-05-10 07:30:00,
2013-05-10 04:00:00,56.5,55.1,30.05,West,264,0.0,10.0,95,0.00,,,0.00,0,Wunderground v.1.15,2013-05-10 08:00:00,
2013-05-10 04:30:00,56.4,55.0,30.05,West,264,0.0,10.0,95,0.00,,,0.00,0,Wunderground v.1.15,2013-05-10 08:30:00,
2013-05-10 05:00:00,56.7,55.6,30.04,West,264,0.0,10.0,96,0.00,,,0.00,0,Wunderground v.1.15,2013-05-10 09:00:00,
2013-05-10 05:30:00,57.3,56.2,30.04,West,264,0.0,10.0,96,0.00,,,0.00,0,Wunderground v.1.15,2013-05-10 09:30:00,
2013-05-10 06:00:00,56.7,55.6,30.04,West,264,0.0,10.0,96,0.00,,,0.00,0,Wunderground v.1.15,2013-05-10 10:00:00,
2013-05-10 06:30:00,55.9,54.5,30.05,West,264,0.0,10.0,95,0.00,,,0.00,11,Wunderground v.1.15,2013-05-10 10:30:00,
2013-05-10 07:00:00,56.3,55.2,30.07,West,264,0.0,10.0,96,0.00,,,0.00,26,Wunderground v.1.15,2013-05-10 11:00:00,
2013-05-10 07:30:00,59.3,58.2,30.07,West,264,0.0,10.0,96,0.00,,,0.00,65,Wunderground v.1.15,2013-05-10 11:30:00,
2013-05-10 08:00:00,63.1,61.9,30.07,West,264,0.0,10.0,96,0.00,,,0.00,77,Wunderground v.1.15,2013-05-10 12:00:00,
2013-05-10 08:30:00,67.1,66.2,30.07,West,264,0.0,10.0,97,0.00,,,0.00,341,Wunderground v.1.15,2013-05-10 12:30:00,
2013-05-10 09:00:00,71.3,65.9,30.06,West,264,0.0,10.0,83,0.00,,,0.00,450,Wunderground v.1.15,2013-05-10 13:00:00,
2013-05-10 09:30:00,74.9,67.6,30.06,WSW,243,0.0,10.0,78,0.00,,,0.00,554,Wunderground v.1.15,2013-05-10 13:30:00,
2013-05-10 10:00:00,78.4,67.8,30.06,SSW,192,1.0,1.0,70,0.00,,,0.00,701,Wunderground v.1.15,2013-05-10 14:00:00,
2013-05-10 10:30:00,81.0,67.2,30.06,West,259,2.0,10.0,63,0.00,,,0.00,754,Wunderground v.1.15,2013-05-10 14:30:00,
2013-05-10 11:00:00,82.1,66.8,30.06,SSW,202,2.0,10.0,60,0.00,,,0.00,830,Wunderground v.1.15,2013-05-10 15:00:00,
2013-05-10 11:30:00,83.8,66.9,30.05,WSW,243,3.0,10.0,57,0.00,,,0.00,884,Wunderground v.1.15,2013-05-10 15:30:00,
2013-05-10 12:00:00,84.5,65.5,30.04,ESE,123,3.0,10.0,53,0.00,,,0.00,960,Wunderground v.1.15,2013-05-10 16:00:00,
2013-05-10 12:30:00,84.3,65.3,30.03,SSW,199,3.0,3.0,53,0.00,,,0.00,997,Wunderground v.1.15,2013-05-10 16:30:00,
2013-05-10 13:00:00,85.3,62.8,30.02,SSW,209,3.0,10.0,47,0.00,,,0.00,1048,Wunderground v.1.15,2013-05-10 17:00:00,
2013-05-10 13:30:00,87.2,66.3,30.01,West,271,2.0,2.0,50,0.00,,,0.00,1005,Wunderground v.1.15,2013-05-10 17:30:00,
2013-05-10 14:00:00,83.0,65.2,30.02,SSW,208,2.0,2.0,55,0.00,,,0.00,886,Wunderground v.1.15,2013-05-10 18:00:00,
2013-05-10 14:30:00,84.9,64.8,30.01,SSE,161,3.0,10.0,51,0.00,,,0.00,930,Wunderground v.1.15,2013-05-10 18:30:00,
2013-05-10 15:00:00,82.7,63.8,30.01,WSW,238,2.0,10.0,53,0.00,,,0.00,290,Wunderground v.1.15,2013-05-10 19:00:00,
2013-05-10 15:30:00,82.9,62.4,30.01,SW,220,4.0,4.0,50,0.00,,,0.00,276,Wunderground v.1.15,2013-05-10 19:30:00,
2013-05-10 16:00:00,83.6,64.7,30.00,SSW,197,4.0,10.0,53,0.00,,,0.00,821,Wunderground v.1.15,2013-05-10 20:00:00,
2013-05-10 16:30:00,83.9,63.3,29.99,South,182,5.0,5.0,50,0.00,,,0.00,640,Wunderground v.1.15,2013-05-10 20:30:00,
2013-05-10 17:00:00,82.8,62.8,29.99,SW,217,6.0,6.0,51,0.00,,,0.00,541,Wunderground v.1.15,2013-05-10 21:00:00,
2013-05-10 17:30:00,81.7,63.4,30.00,WSW,253,5.0,10.0,54,0.00,,,0.00,350,Wunderground v.1.15,2013-05-10 21:30:00,
2013-05-10 18:00:00,79.9,63.8,29.99,SW,223,5.0,10.0,58,0.00,,,0.00,199,Wunderground v.1.15,2013-05-10 22:00:00,
2013-05-10 18:30:00,78.2,63.2,29.98,SSW,197,4.0,4.0,60,0.00,,,0.00,111,Wunderground v.1.15,2013-05-10 22:30:00,
2013-05-10 19:00:00,77.1,63.5,29.99,SSE,168,4.0,10.0,63,0.00,,,0.00,79,Wunderground v.1.15,2013-05-10 23:00:00,
2013-05-10 19:30:00,75.1,64.2,29.99,SSW,204,2.0,10.0,69,0.00,,,0.00,33,Wunderground v.1.15,2013-05-10 23:30:00,
2013-05-10 20:00:00,73.5,63.5,30.00,South,186,2.0,10.0,71,0.00,,,0.00,0,Wunderground v.1.15,2013-05-11 00:00:00,
2013-05-10 20:30:00,71.8,63.1,29.99,SW,219,2.0,2.0,74,0.00,,,0.00,0,Wunderground v.1.15,2013-05-11 00:30:00,
2013-05-10 21:00:00,70.6,63.4,29.99,South,190,0.0,10.0,78,0.00,,,0.00,0,Wunderground v.1.15,2013-05-11 01:00:00,
2013-05-10 21:30:00,68.9,63.5,30.00,SSW,196,1.0,1.0,83,0.00,,,0.00,0,Wunderground v.1.15,2013-05-11 01:30:00,
2013-05-10 22:00:00,68.2,63.2,30.01,SSW,201,1.0,1.0,84,0.00,,,0.00,0,Wunderground v.1.15,2013-05-11 02:00:00,
2013-05-10 22:30:00,67.9,62.9,30.00,SSW,192,1.0,1.0,84,0.00,,,0.00,0,Wunderground v.1.15,2013-05-11 02:30:00,
2013-05-10 23:00:00,67.4,62.7,30.01,SSW,202,0.0,10.0,85,0.00,,,0.00,0,Wunderground v.1.15,2013-05-11 03:00:00,
2013-05-10 23:30:00,66.7,62.4,30.00,SW,221,0.0,10.0,86,0.00,,,0.00,0,Wunderground v.1.15,2013-05-11 03:30:00,